Time,TemperatureF,DewpointF,PressureIn,WindDirection,WindDirectionDegrees,WindSpeedMPH,WindSpeedGustMPH,Humidity,HourlyPrecipIn,Conditions,Clouds,dailyrainin,SoftwareType,DateUTC
2013-08-11 00:00:00,76.5,73.7,29.96,South,182,0.0,5.0,91,0.00,,,0.00,Wunderground v.1.15,2013-08-11 05:00:00,
2013-08-11 00:05:00,76.5,73.7,29.96,South,182,0.0,5.0,91,0.00,,,0.00,Wunderground v.1.15,2013-08-11 05:05:00,
2013-08-11 00:15:00,76.2,73.1,29.96,South,182,0.0,0.0,90,0.00,,,0.00,Wunderground v.1.15,2013-08-11 05:15:00,
2013-08-11 00:20:00,76.1,73.3,29.96,South,182,0.0,0.0,91,0.00,,,0.00,Wunderground v.1.15,2013-08-11 05:20:00,
2013-08-11 00:25:00,76.0,73.2,29.96,South,182,0.0,0.0,91,0.00,,,0.00,Wunderground v.1.15,2013-08-11 05:25:00,
2013-08-11 00:35:00,75.8,73.0,29.96,South,182,0.0,3.0,91,0.00,,,0.00,Wunderground v.1.15,2013-08-11 05:35:00,
2013-08-11 00:40:00,75.5,72.7,29.96,South,182,0.0,3.0,91,0.00,,,0.00,Wunderground v.1.15,2013-08-11 05:40:00,
2013-08-11 00:45:00,75.4,72.6,29.96,South,182,1.0,3.0,91,0.00,,,0.00,Wunderground v.1.15,2013-08-11 05:45:00,
2013-08-11 00:50:00,75.3,72.8,29.96,South,182,1.0,1.0,92,0.00,,,0.00,Wunderground v.1.15,2013-08-11 05:50:00,
2013-08-11 00:55:00,75.2,72.7,29.96,South,182,0.0,3.0,92,0.00,,,0.00,Wunderground v.1.15,2013-08-11 05:55:00,
2013-08-11 01:05:00,74.9,72.4,29.96,South,182,0.0,3.0,92,0.00,,,0.00,Wunderground v.1.15,2013-08-11 06:05:00,
2013-08-11 01:10:00,74.9,72.7,29.96,South,182,0.0,3.0,93,0.00,,,0.00,Wunderground v.1.15,2013-08-11 06:10:00,
2013-08-11 01:20:00,74.7,72.5,29.96,South,182,0.0,3.0,93,0.00,,,0.00,Wunderground v.1.15,2013-08-11 06:20:00,
2013-08-11 01:35:00,74.6,72.4,29.95,South,182,0.0,3.0,93,0.00,,,0.00,Wunderground v.1.15,2013-08-11 06:35:00,
2013-08-11 01:40:00,74.6,72.4,29.95,South,182,0.0,3.0,93,0.00,,,0.00,Wunderground v.1.15,2013-08-11 06:40:00,
2013-08-11 01:45:00,74.5,72.3,29.95,South,182,1.0,3.0,93,0.00,,,0.00,Wunderground v.1.15,2013-08-11 06:45:00,
2013-08-11 01:50:00,74.5,72.7,29.95,South,182,0.0,3.0,94,0.00,,,0.00,Wunderground v.1.15,2013-08-11 06:50:00,
2013-08-11 01:55:00,74.5,72.7,29.94,South,182,0.0,3.0,94,0.00,,,0.00,Wunderground v.1.15,2013-08-11 06:55:00,
2013-08-11 02:00:00,74.6,72.8,29.94,South,182,0.0,3.0,94,0.00,,,0.00,Wunderground v.1.15,2013-08-11 07:00:00,
2013-08-11 02:05:00,74.6,72.8,29.94,South,182,1.0,3.0,94,0.00,,,0.00,Wunderground v.1.15,2013-08-11 07:05:00,
2013-08-11 02:10:00,74.6,72.8,29.95,South,182,0.0,3.0,94,0.00,,,0.00,Wunderground v.1.15,2013-08-11 07:10:00,
2013-08-11 02:20:00,74.3,72.5,29.95,South,182,0.0,3.0,94,0.00,,,0.00,Wunderground v.1.15,2013-08-11 07:20:00,
2013-08-11 02:30:00,74.2,72.4,29.95,South,182,0.0,3.0,94,0.00,,,0.00,Wunderground v.1.15,2013-08-11 07:30:00,
2013-08-11 02:45:00,74.1,72.3,29.95,South,182,0.0,3.0,94,0.00,,,0.00,Wunderground v.1.15,2013-08-11 07:45:00,
2013-08-11 02:50:00,74.1,72.3,29.95,South,182,0.0,3.0,94,0.00,,,0.00,Wunderground v.1.15,2013-08-11 07:50:00,
2013-08-11 03:00:00,74.0,72.2,29.95,South,182,0.0,3.0,94,0.00,,,0.00,Wunderground v.1.15,2013-08-11 08:00:00,
2013-08-11 03:05:00,73.9,72.1,29.95,South,182,0.0,3.0,94,0.00,,,0.00,Wunderground v.1.15,2013-08-11 08:05:00,
2013-08-11 03:10:00,73.8,72.0,29.95,South,182,0.0,3.0,94,0.00,,,0.00,Wunderground v.1.15,2013-08-11 08:10:00,
2013-08-11 03:15:00,73.7,71.9,29.95,South,182,0.0,3.0,94,0.00,,,0.00,Wunderground v.1.15,2013-08-11 08:15:00,
2013-08-11 03:20:00,73.6,71.8,29.95,South,182,1.0,1.0,94,0.00,,,0.00,Wunderground v.1.15,2013-08-11 08:20:00,
2013-08-11 03:25:00,73.5,71.7,29.95,South,182,0.0,3.0,94,0.00,,,0.00,Wunderground v.1.15,2013-08-11 08:25:00,
2013-08-11 03:30:00,73.5,71.7,29.95,South,182,0.0,3.0,94,0.00,,,0.00,Wunderground v.1.15,2013-08-11 08:30:00,
2013-08-11 03:40:00,73.3,71.5,29.95,South,182,0.0,3.0,94,0.00,,,0.00,Wunderground v.1.15,2013-08-11 08:40:00,
2013-08-11 03:50:00,73.1,71.3,29.95,South,182,0.0,3.0,94,0.00,,,0.00,Wunderground v.1.15,2013-08-11 08:50:00,
2013-08-11 04:00:00,72.9,71.1,29.95,South,182,0.0,3.0,94,0.00,,,0.00,Wunderground v.1.15,2013-08-11 09:00:00,
2013-08-11 04:05:00,72.9,71.1,29.95,South,182,0.0,3.0,94,0.00,,,0.00,Wunderground v.1.15,2013-08-11 09:05:00,
2013-08-11 04:10:00,72.8,71.0,29.95,South,182,0.0,3.0,94,0.00,,,0.00,Wunderground v.1.15,2013-08-11 09:10:00,
2013-08-11 04:15:00,72.8,71.0,29.95,South,182,0.0,3.0,94,0.00,,,0.00,Wunderground v.1.15,2013-08-11 09:15:00,
2013-08-11 04:20:00,72.8,71.0,29.95,South,182,0.0,3.0,94,0.00,,,0.00,Wunderground v.1.15,2013-08-11 09:20:00,
2013-08-11 04:25:00,72.8,71.0,29.96,South,182,0.0,3.0,94,0.00,,,0.00,Wunderground v.1.15,2013-08-11 09:25:00,
2013-08-11 04:30:00,72.6,70.8,29.96,South,182,0.0,3.0,94,0.00,,,0.00,Wunderground v.1.15,2013-08-11 09:30:00,
2013-08-11 04:35:00,72.6,70.8,29.96,South,182,0.0,3.0,94,0.00,,,0.00,Wunderground v.1.15,2013-08-11 09:35:00,
2013-08-11 04:40:00,72.5,70.7,29.97,South,182,0.0,3.0,94,0.00,,,0.00,Wunderground v.1.15,2013-08-11 09:40:00,
2013-08-11 04:45:00,72.4,70.9,29.97,South,182,1.0,3.0,95,0.00,,,0.00,Wunderground v.1.15,2013-08-11 09:45:00,
2013-08-11 04:55:00,72.4,70.9,29.97,South,182,0.0,3.0,95,0.00,,,0.00,Wunderground v.1.15,2013-08-11 09:55:00,
2013-08-11 05:00:00,72.4,70.9,29.97,South,182,0.0,3.0,95,0.00,,,0.00,Wunderground v.1.15,2013-08-11 10:00:00,
2013-08-11 05:05:00,72.4,70.9,29.97,South,182,0.0,3.0,95,0.00,,,0.00,Wunderground v.1.15,2013-08-11 10:05:00,
2013-08-11 05:10:00,72.3,70.8,29.97,South,182,0.0,0.0,95,0.00,,,0.00,Wunderground v.1.15,2013-08-11 10:10:00,
2013-08-11 05:15:00,72.3,70.8,29.97,South,182,0.0,0.0,95,0.00,,,0.00,Wunderground v.1.15,2013-08-11 10:15:00,
2013-08-11 05:20:00,72.3,70.8,29.97,South,182,0.0,0.0,95,0.00,,,0.00,Wunderground v.1.15,2013-08-11 10:20:00,
2013-08-11 05:25:00,72.3,70.8,29.98,South,182,0.0,0.0,95,0.00,,,0.00,Wunderground v.1.15,2013-08-11 10:25:00,
2013-08-11 05:30:00,72.2,70.7,29.98,South,182,0.0,0.0,95,0.00,,,0.00,Wunderground v.1.15,2013-08-11 10:30:00,
2013-08-11 05:40:00,72.1,70.6,29.98,South,182,0.0,2.0,95,0.00,,,0.00,Wunderground v.1.15,2013-08-11 10:40:00,
2013-08-11 05:45:00,72.1,70.6,29.98,South,182,0.0,2.0,95,0.00,,,0.00,Wunderground v.1.15,2013-08-11 10:45:00,
2013-08-11 05:55:00,72.0,70.5,29.98,South,182,0.0,2.0,95,0.00,,,0.00,Wunderground v.1.15,2013-08-11 10:55:00,
2013-08-11 06:00:00,71.9,70.4,29.98,South,182,1.0,2.0,95,0.00,,,0.00,Wunderground v.1.15,2013-08-11 11:00:00,
2013-08-11 06:05:00,71.9,70.4,29.98,South,182,1.0,2.0,95,0.00,,,0.00,Wunderground v.1.15,2013-08-11 11:05:00,
2013-08-11 06:10:00,71.9,70.4,29.98,South,182,1.0,2.0,95,0.00,,,0.00,Wunderground v.1.15,2013-08-11 11:10:00,
2013-08-11 06:20:00,71.8,70.3,29.98,South,182,1.0,2.0,95,0.00,,,0.00,Wunderground v.1.15,2013-08-11 11:20:00,
2013-08-11 06:25:00,71.7,70.2,29.98,South,182,1.0,2.0,95,0.00,,,0.00,Wunderground v.1.15,2013-08-11 11:25:00,
2013-08-11 06:35:00,72.2,70.7,29.98,NNE,33,1.0,2.0,95,0.00,,,0.00,Wunderground v.1.15,2013-08-11 11:35:00,
2013-08-11 06:40:00,72.3,70.8,29.99,NE,34,2.0,2.0,95,0.00,,,0.00,Wunderground v.1.15,2013-08-11 11:40:00,
2013-08-11 06:50:00,72.4,70.9,29.99,NE,35,2.0,2.0,95,0.00,,,0.00,Wunderground v.1.15,2013-08-11 11:50:00,
2013-08-11 07:00:00,72.7,71.2,30.00,NE,34,1.0,1.0,95,0.00,,,0.00,Wunderground v.1.15,2013-08-11 12:00:00,
2013-08-11 07:05:00,72.7,71.2,30.00,NE,35,1.0,2.0,95,0.00,,,0.00,Wunderground v.1.15,2013-08-11 12:05:00,
2013-08-11 07:10:00,73.0,71.8,30.00,NE,34,1.0,2.0,96,0.00,,,0.00,Wunderground v.1.15,2013-08-11 12:10:00,
2013-08-11 07:20:00,73.3,72.1,30.00,NE,35,1.0,2.0,96,0.00,,,0.00,Wunderground v.1.15,2013-08-11 12:20:00,
2013-08-11 07:25:00,73.5,72.3,30.00,NE,36,1.0,2.0,96,0.00,,,0.00,Wunderground v.1.15,2013-08-11 12:25:00,
2013-08-11 07:30:00,73.7,72.5,30.00,NE,36,1.0,2.0,96,0.00,,,0.00,Wunderground v.1.15,2013-08-11 12:30:00,
2013-08-11 07:40:00,74.1,72.9,30.01,NE,36,1.0,2.0,96,0.00,,,0.00,Wunderground v.1.15,2013-08-11 12:40:00,
2013-08-11 07:45:00,74.5,73.3,30.01,NE,36,1.0,2.0,96,0.00,,,0.00,Wunderground v.1.15,2013-08-11 12:45:00,
2013-08-11 07:50:00,74.8,73.6,30.01,NE,35,1.0,2.0,96,0.00,,,0.00,Wunderground v.1.15,2013-08-11 12:50:00,
2013-08-11 07:55:00,75.1,73.9,30.01,NE,51,1.0,2.0,96,0.00,,,0.00,Wunderground v.1.15,2013-08-11 12:55:00,
2013-08-11 08:00:00,75.4,74.2,30.01,NNE,31,1.0,2.0,96,0.00,,,0.00,Wunderground v.1.15,2013-08-11 13:00:00,
2013-08-11 08:05:00,75.7,74.5,30.01,NE,34,2.0,2.0,96,0.00,,,0.00,Wunderground v.1.15,2013-08-11 13:05:00,
2013-08-11 08:10:00,76.0,74.5,30.01,NE,36,2.0,2.0,95,0.00,,,0.00,Wunderground v.1.15,2013-08-11 13:10:00,
2013-08-11 08:15:00,76.3,74.8,30.01,NE,40,1.0,2.0,95,0.00,,,0.00,Wunderground v.1.15,2013-08-11 13:15:00,
2013-08-11 08:20:00,76.6,75.1,30.01,NE,44,1.0,2.0,95,0.00,,,0.00,Wunderground v.1.15,2013-08-11 13:20:00,
2013-08-11 08:25:00,77.0,74.8,30.01,NE,37,2.0,2.0,93,0.00,,,0.00,Wunderground v.1.15,2013-08-11 13:25:00,
2013-08-11 08:35:00,77.6,74.8,30.01,NE,44,2.0,3.0,91,0.00,,,0.00,Wunderground v.1.15,2013-08-11 13:35:00,
2013-08-11 08:40:00,78.0,75.2,30.01,NE,49,2.0,2.0,91,0.00,,,0.00,Wunderground v.1.15,2013-08-11 13:40:00,
2013-08-11 08:45:00,78.3,75.1,30.01,NE,45,2.0,2.0,90,0.00,,,0.00,Wunderground v.1.15,2013-08-11 13:45:00,
2013-08-11 09:00:00,79.7,75.5,30.01,NE,34,2.0,2.0,87,0.00,,,0.00,Wunderground v.1.15,2013-08-11 14:00:00,
2013-08-11 09:05:00,80.3,76.1,30.01,NNE,24,2.0,3.0,87,0.00,,,0.00,Wunderground v.1.15,2013-08-11 14:05:00,
2013-08-11 09:10:00,80.8,75.9,30.01,NE,46,2.0,2.0,85,0.00,,,0.00,Wunderground v.1.15,2013-08-11 14:10:00,
2013-08-11 09:20:00,81.9,75.9,30.01,NE,53,2.0,2.0,82,0.00,,,0.00,Wunderground v.1.15,2013-08-11 14:20:00,
2013-08-11 09:30:00,83.1,75.5,30.00,SE,145,2.0,3.0,78,0.00,,,0.00,Wunderground v.1.15,2013-08-11 14:30:00,
2013-08-11 09:35:00,83.7,76.1,30.00,East,98,2.0,3.0,78,0.00,,,0.00,Wunderground v.1.15,2013-08-11 14:35:00,
2013-08-11 09:40:00,84.0,76.0,30.00,SSE,149,3.0,4.0,77,0.00,,,0.00,Wunderground v.1.15,2013-08-11 14:40:00,
2013-08-11 09:45:00,84.1,75.7,30.00,South,175,3.0,4.0,76,0.00,,,0.00,Wunderground v.1.15,2013-08-11 14:45:00,
2013-08-11 09:50:00,84.4,76.4,30.00,ESE,120,2.0,2.0,77,0.00,,,0.00,Wunderground v.1.15,2013-08-11 14:50:00,
2013-08-11 09:55:00,85.0,75.8,30.00,NE,40,2.0,2.0,74,0.00,,,0.00,Wunderground v.1.15,2013-08-11 14:55:00,
2013-08-11 10:05:00,85.4,74.5,30.00,North,355,2.0,2.0,70,0.00,,,0.00,Wunderground v.1.15,2013-08-11 15:05:00,
2013-08-11 10:10:00,86.5,74.2,30.01,South,173,2.0,2.0,67,0.00,,,0.00,Wunderground v.1.15,2013-08-11 15:10:00,
2013-08-11 10:15:00,87.5,75.2,30.01,South,176,2.0,2.0,67,0.00,,,0.00,Wunderground v.1.15,2013-08-11 15:15:00,
2013-08-11 10:20:00,88.0,74.3,30.01,WSW,250,2.0,2.0,64,0.00,,,0.00,Wunderground v.1.15,2013-08-11 15:20:00,
2013-08-11 10:25:00,88.1,74.8,30.01,SE,133,2.0,2.0,65,0.00,,,0.00,Wunderground v.1.15,2013-08-11 15:25:00,
2013-08-11 10:30:00,88.5,74.8,30.01,North,355,2.0,2.0,64,0.00,,,0.00,Wunderground v.1.15,2013-08-11 15:30:00,
2013-08-11 10:35:00,88.6,72.9,30.01,SSE,152,3.0,3.0,60,0.00,,,0.00,Wunderground v.1.15,2013-08-11 15:35:00,
2013-08-11 10:40:00,88.6,73.9,30.00,ENE,69,2.0,3.0,62,0.00,,,0.00,Wunderground v.1.15,2013-08-11 15:40:00,
2013-08-11 10:45:00,89.2,74.5,30.00,WSW,238,2.0,3.0,62,0.00,,,0.00,Wunderground v.1.15,2013-08-11 15:45:00,
2013-08-11 10:55:00,89.1,74.9,30.01,SSE,167,2.0,2.0,63,0.00,,,0.00,Wunderground v.1.15,2013-08-11 15:55:00,
2013-08-11 11:00:00,89.0,74.8,30.01,West,261,1.0,2.0,63,0.00,,,0.00,Wunderground v.1.15,2013-08-11 16:00:00,
2013-08-11 11:05:00,89.3,74.6,30.01,West,275,2.0,3.0,62,0.00,,,0.00,Wunderground v.1.15,2013-08-11 16:05:00,
2013-08-11 11:10:00,88.9,74.7,30.00,WSW,255,2.0,2.0,63,0.00,,,0.00,Wunderground v.1.15,2013-08-11 16:10:00,
2013-08-11 11:20:00,88.4,73.7,30.00,WSW,241,3.0,3.0,62,0.00,,,0.00,Wunderground v.1.15,2013-08-11 16:20:00,
2013-08-11 11:25:00,88.3,73.1,30.00,West,261,3.0,3.0,61,0.00,,,0.00,Wunderground v.1.15,2013-08-11 16:25:00,
2013-08-11 11:30:00,88.2,73.5,30.00,SW,231,3.0,3.0,62,0.00,,,0.00,Wunderground v.1.15,2013-08-11 16:30:00,
2013-08-11 11:35:00,88.3,72.7,30.00,SW,223,2.0,3.0,60,0.00,,,0.00,Wunderground v.1.15,2013-08-11 16:35:00,
2013-08-11 11:45:00,90.3,74.0,30.00,ESE,105,1.0,3.0,59,0.00,,,0.00,Wunderground v.1.15,2013-08-11 16:45:00,
2013-08-11 11:50:00,91.1,73.7,30.00,SSE,161,1.0,8.0,57,0.00,,,0.00,Wunderground v.1.15,2013-08-11 16:50:00,
2013-08-11 11:55:00,91.8,74.4,29.99,SSE,156,2.0,8.0,57,0.00,,,0.00,Wunderground v.1.15,2013-08-11 16:55:00,
2013-08-11 12:00:00,91.3,72.3,29.99,WSW,252,2.0,2.0,54,0.00,,,0.00,Wunderground v.1.15,2013-08-11 17:00:00,
2013-08-11 12:05:00,91.0,73.1,29.99,SSE,165,2.0,2.0,56,0.00,,,0.00,Wunderground v.1.15,2013-08-11 17:05:00,
2013-08-11 12:20:00,90.8,73.5,29.99,East,82,2.0,2.0,57,0.00,,,0.00,Wunderground v.1.15,2013-08-11 17:20:00,
2013-08-11 12:25:00,91.4,74.0,29.98,WSW,250,2.0,2.0,57,0.00,,,0.00,Wunderground v.1.15,2013-08-11 17:25:00,
2013-08-11 12:30:00,92.2,73.2,29.98,SSE,165,2.0,2.0,54,0.00,,,0.00,Wunderground v.1.15,2013-08-11 17:30:00,
2013-08-11 12:35:00,92.7,71.9,29.98,NW,310,2.0,2.0,51,0.00,,,0.00,Wunderground v.1.15,2013-08-11 17:35:00,
2013-08-11 12:40:00,91.7,72.7,29.98,SSE,166,2.0,2.0,54,0.00,,,0.00,Wunderground v.1.15,2013-08-11 17:40:00,
2013-08-11 12:45:00,90.4,73.1,29.98,East,80,2.0,4.0,57,0.00,,,0.00,Wunderground v.1.15,2013-08-11 17:45:00,
2013-08-11 12:50:00,88.2,74.5,29.98,South,175,3.0,4.0,64,0.00,,,0.00,Wunderground v.1.15,2013-08-11 17:50:00,
2013-08-11 12:55:00,85.8,74.4,29.99,SSE,167,4.0,4.0,69,0.00,,,0.00,Wunderground v.1.15,2013-08-11 17:55:00,
2013-08-11 13:00:00,84.1,74.1,29.99,SE,138,4.0,6.0,72,0.00,,,0.00,Wunderground v.1.15,2013-08-11 18:00:00,
2013-08-11 13:05:00,82.5,73.4,29.99,SE,128,3.0,6.0,74,0.64,,,0.02,Wunderground v.1.15,2013-08-11 18:05:00,
2013-08-11 13:10:00,80.8,73.7,30.00,NNE,28,3.0,3.0,79,0.51,,,0.08,Wunderground v.1.15,2013-08-11 18:10:00,
2013-08-11 13:15:00,79.1,73.5,30.00,NE,38,3.0,3.0,83,0.18,,,0.09,Wunderground v.1.15,2013-08-11 18:15:00,
2013-08-11 13:20:00,78.2,74.0,30.00,NE,50,3.0,3.0,87,0.09,,,0.09,Wunderground v.1.15,2013-08-11 18:20:00,
2013-08-11 13:30:00,78.4,75.2,30.00,NE,55,2.0,3.0,90,0.06,,,0.10,Wunderground v.1.15,2013-08-11 18:30:00,
2013-08-11 13:35:00,79.3,76.4,30.00,NNE,28,2.0,3.0,91,0.04,,,0.10,Wunderground v.1.15,2013-08-11 18:35:00,
2013-08-11 13:40:00,80.1,76.6,30.01,ENE,70,2.0,2.0,89,0.00,,,0.10,Wunderground v.1.15,2013-08-11 18:40:00,
2013-08-11 13:45:00,80.5,75.2,30.01,South,172,3.0,3.0,84,0.00,,,0.10,Wunderground v.1.15,2013-08-11 18:45:00,
2013-08-11 13:50:00,80.4,74.8,30.01,SSE,161,3.0,4.0,83,0.00,,,0.10,Wunderground v.1.15,2013-08-11 18:50:00,
2013-08-11 14:05:00,80.5,75.6,30.00,SE,146,2.0,2.0,85,0.00,,,0.10,Wunderground v.1.15,2013-08-11 19:05:00,
2013-08-11 14:10:00,80.7,75.8,29.99,SSE,153,1.0,2.0,85,0.00,,,0.10,Wunderground v.1.15,2013-08-11 19:10:00,
2013-08-11 14:15:00,80.9,74.9,29.99,SSE,163,1.0,3.0,82,0.00,,,0.10,Wunderground v.1.15,2013-08-11 19:15:00,
2013-08-11 14:20:00,81.0,75.0,29.99,SSE,157,2.0,2.0,82,0.00,,,0.10,Wunderground v.1.15,2013-08-11 19:20:00,
2013-08-11 14:30:00,81.1,75.1,29.99,SSW,211,1.0,2.0,82,0.00,,,0.10,Wunderground v.1.15,2013-08-11 19:30:00,
2013-08-11 14:35:00,81.1,74.3,29.99,WNW,283,1.0,2.0,80,0.00,,,0.10,Wunderground v.1.15,2013-08-11 19:35:00,
2013-08-11 14:40:00,81.1,74.3,29.99,South,186,2.0,2.0,80,0.00,,,0.10,Wunderground v.1.15,2013-08-11 19:40:00,
2013-08-11 14:45:00,81.5,74.7,29.99,SSE,152,3.0,4.0,80,0.00,,,0.10,Wunderground v.1.15,2013-08-11 19:45:00,
2013-08-11 14:50:00,82.1,75.3,29.99,SSE,154,2.0,2.0,80,0.00,,,0.10,Wunderground v.1.15,2013-08-11 19:50:00,
2013-08-11 15:00:00,82.6,75.4,29.98,ESE,106,3.0,3.0,79,0.00,,,0.10,Wunderground v.1.15,2013-08-11 20:00:00,
2013-08-11 15:05:00,83.0,74.6,29.98,SSE,167,3.0,3.0,76,0.00,,,0.10,Wunderground v.1.15,2013-08-11 20:05:00,
2013-08-11 15:10:00,83.1,75.1,29.97,SE,139,2.0,2.0,77,0.00,,,0.10,Wunderground v.1.15,2013-08-11 20:10:00,
2013-08-11 15:20:00,83.8,75.0,29.97,ESE,104,3.0,3.0,75,0.00,,,0.10,Wunderground v.1.15,2013-08-11 20:20:00,
2013-08-11 15:25:00,84.1,74.1,29.97,ESE,114,3.0,3.0,72,0.00,,,0.10,Wunderground v.1.15,2013-08-11 20:25:00,
2013-08-11 15:30:00,84.1,73.7,29.97,South,190,3.0,5.0,71,0.00,,,0.10,Wunderground v.1.15,2013-08-11 20:30:00,
2013-08-11 15:35:00,83.7,73.3,29.97,SE,129,3.0,9.0,71,0.00,,,0.10,Wunderground v.1.15,2013-08-11 20:35:00,
2013-08-11 15:40:00,83.9,73.9,29.97,ESE,115,2.0,2.0,72,0.00,,,0.10,Wunderground v.1.15,2013-08-11 20:40:00,
2013-08-11 15:45:00,84.2,73.8,29.97,SE,136,2.0,6.0,71,0.00,,,0.10,Wunderground v.1.15,2013-08-11 20:45:00,
2013-08-11 15:50:00,84.3,74.3,29.97,South,178,2.0,2.0,72,0.00,,,0.10,Wunderground v.1.15,2013-08-11 20:50:00,
2013-08-11 15:55:00,84.7,74.3,29.97,WSW,255,2.0,9.0,71,0.00,,,0.10,Wunderground v.1.15,2013-08-11 20:55:00,
2013-08-11 16:00:00,84.9,74.0,29.97,SSE,154,2.0,9.0,70,0.00,,,0.10,Wunderground v.1.15,2013-08-11 21:00:00,
2013-08-11 16:05:00,84.8,73.9,29.97,SW,236,2.0,9.0,70,0.00,,,0.10,Wunderground v.1.15,2013-08-11 21:05:00,
2013-08-11 16:15:00,85.4,74.9,29.97,SSE,163,2.0,9.0,71,0.00,,,0.10,Wunderground v.1.15,2013-08-11 21:15:00,
2013-08-11 16:25:00,85.5,73.7,29.96,SSE,165,2.0,9.0,68,0.00,,,0.10,Wunderground v.1.15,2013-08-11 21:25:00,
2013-08-11 16:40:00,85.0,73.7,29.96,SW,214,3.0,3.0,69,0.00,,,0.10,Wunderground v.1.15,2013-08-11 21:40:00,
2013-08-11 16:45:00,85.0,74.5,29.96,SSE,153,2.0,4.0,71,0.00,,,0.10,Wunderground v.1.15,2013-08-11 21:45:00,
2013-08-11 16:55:00,85.2,75.1,29.96,South,188,2.0,9.0,72,0.00,,,0.10,Wunderground v.1.15,2013-08-11 21:55:00,
2013-08-11 17:00:00,85.2,74.3,29.96,SSE,150,3.0,9.0,70,0.00,,,0.10,Wunderground v.1.15,2013-08-11 22:00:00,
2013-08-11 17:05:00,85.1,74.2,29.96,SSE,163,3.0,9.0,70,0.00,,,0.10,Wunderground v.1.15,2013-08-11 22:05:00,
2013-08-11 17:10:00,85.1,74.2,29.96,SE,126,3.0,9.0,70,0.00,,,0.10,Wunderground v.1.15,2013-08-11 22:10:00,
2013-08-11 17:20:00,85.0,74.5,29.96,ESE,122,2.0,2.0,71,0.00,,,0.10,Wunderground v.1.15,2013-08-11 22:20:00,
2013-08-11 17:25:00,84.7,73.8,29.96,SE,142,3.0,3.0,70,0.00,,,0.10,Wunderground v.1.15,2013-08-11 22:25:00,
2013-08-11 17:30:00,84.5,74.5,29.96,SE,132,3.0,3.0,72,0.00,,,0.10,Wunderground v.1.15,2013-08-11 22:30:00,
2013-08-11 17:40:00,84.7,74.7,29.96,South,184,2.0,9.0,72,0.00,,,0.10,Wunderground v.1.15,2013-08-11 22:40:00,
2013-08-11 17:45:00,84.6,75.0,29.96,SW,220,2.0,9.0,73,0.00,,,0.10,Wunderground v.1.15,2013-08-11 22:45:00,
2013-08-11 17:55:00,84.9,74.4,29.96,SSW,195,2.0,3.0,71,0.00,,,0.10,Wunderground v.1.15,2013-08-11 22:55:00,
2013-08-11 18:00:00,84.9,74.4,29.96,SE,138,2.0,9.0,71,0.00,,,0.10,Wunderground v.1.15,2013-08-11 23:00:00,
2013-08-11 18:05:00,84.8,74.3,29.96,West,259,3.0,9.0,71,0.00,,,0.10,Wunderground v.1.15,2013-08-11 23:05:00,
2013-08-11 18:10:00,84.7,74.3,29.95,SSE,157,3.0,3.0,71,0.00,,,0.10,Wunderground v.1.15,2013-08-11 23:10:00,
2013-08-11 18:15:00,84.5,74.5,29.95,ESE,105,3.0,9.0,72,0.00,,,0.10,Wunderground v.1.15,2013-08-11 23:15:00,
2013-08-11 18:20:00,84.7,74.7,29.95,NNE,15,2.0,2.0,72,0.00,,,0.10,Wunderground v.1.15,2013-08-11 23:20:00,
2013-08-11 18:30:00,84.9,74.4,29.96,SSE,165,2.0,9.0,71,0.00,,,0.10,Wunderground v.1.15,2013-08-11 23:30:00,
2013-08-11 18:35:00,84.9,74.4,29.96,SSE,163,2.0,9.0,71,0.00,,,0.10,Wunderground v.1.15,2013-08-11 23:35:00,
2013-08-11 18:45:00,84.7,75.1,29.96,SSW,210,2.0,9.0,73,0.00,,,0.10,Wunderground v.1.15,2013-08-11 23:45:00,
2013-08-11 18:50:00,84.7,75.1,29.96,SE,138,2.0,9.0,73,0.00,,,0.10,Wunderground v.1.15,2013-08-11 23:50:00,
2013-08-11 19:05:00,83.8,74.2,29.96,South,173,2.0,9.0,73,0.00,,,0.10,Wunderground v.1.15,2013-08-12 00:05:00,
2013-08-11 19:10:00,83.6,74.4,29.97,South,171,1.0,9.0,74,0.00,,,0.10,Wunderground v.1.15,2013-08-12 00:10:00,
2013-08-11 19:15:00,83.4,74.6,29.97,SE,134,1.0,9.0,75,0.00,,,0.10,Wunderground v.1.15,2013-08-12 00:15:00,
2013-08-11 19:20:00,83.3,74.5,29.97,SSE,161,1.0,9.0,75,0.00,,,0.10,Wunderground v.1.15,2013-08-12 00:20:00,
2013-08-11 19:25:00,83.1,74.7,29.98,SSE,163,1.0,9.0,76,0.00,,,0.10,Wunderground v.1.15,2013-08-12 00:25:00,
2013-08-11 19:30:00,82.9,74.6,29.98,SSE,155,1.0,1.0,76,0.00,,,0.10,Wunderground v.1.15,2013-08-12 00:30:00,
2013-08-11 19:35:00,82.7,74.4,29.98,SSE,155,1.0,9.0,76,0.00,,,0.10,Wunderground v.1.15,2013-08-12 00:35:00,
2013-08-11 19:40:00,82.5,74.6,29.98,SSE,155,0.0,9.0,77,0.00,,,0.10,Wunderground v.1.15,2013-08-12 00:40:00,
2013-08-11 19:45:00,82.3,74.7,29.98,SSE,155,0.0,9.0,78,0.00,,,0.10,Wunderground v.1.15,2013-08-12 00:45:00,
2013-08-11 19:50:00,82.1,74.9,29.98,SSE,155,0.0,9.0,79,0.00,,,0.10,Wunderground v.1.15,2013-08-12 00:50:00,
2013-08-11 19:55:00,81.7,75.3,29.98,SSE,155,1.0,9.0,81,0.00,,,0.10,Wunderground v.1.15,2013-08-12 00:55:00,
2013-08-11 20:00:00,81.3,74.9,29.98,SSE,155,1.0,1.0,81,0.00,,,0.10,Wunderground v.1.15,2013-08-12 01:00:00,
2013-08-11 20:05:00,81.0,75.0,29.98,SSE,155,0.0,9.0,82,0.00,,,0.10,Wunderground v.1.15,2013-08-12 01:05:00,
2013-08-11 20:10:00,80.7,74.7,29.99,SSE,155,0.0,9.0,82,0.00,,,0.10,Wunderground v.1.15,2013-08-12 01:10:00,
2013-08-11 20:15:00,80.3,74.7,29.99,SSE,155,0.0,9.0,83,0.00,,,0.10,Wunderground v.1.15,2013-08-12 01:15:00,
2013-08-11 20:20:00,79.9,74.3,29.99,SSE,155,0.0,9.0,83,0.00,,,0.10,Wunderground v.1.15,2013-08-12 01:20:00,
2013-08-11 20:35:00,79.1,74.2,29.99,SSE,155,0.0,9.0,85,0.00,,,0.10,Wunderground v.1.15,2013-08-12 01:35:00,
2013-08-11 20:45:00,78.8,73.9,29.99,SSE,155,0.0,9.0,85,0.00,,,0.10,Wunderground v.1.15,2013-08-12 01:45:00,
2013-08-11 20:55:00,78.5,73.6,29.99,SSE,155,0.0,9.0,85,0.00,,,0.10,Wunderground v.1.15,2013-08-12 01:55:00,
2013-08-11 21:00:00,78.4,73.9,29.99,SSE,155,0.0,9.0,86,0.00,,,0.10,Wunderground v.1.15,2013-08-12 02:00:00,
2013-08-11 21:05:00,78.3,74.1,29.99,SSE,155,0.0,9.0,87,0.00,,,0.10,Wunderground v.1.15,2013-08-12 02:05:00,
2013-08-11 21:10:00,78.0,73.8,29.99,SSE,155,1.0,1.0,87,0.00,,,0.10,Wunderground v.1.15,2013-08-12 02:10:00,
2013-08-11 21:15:00,77.8,74.0,29.99,SSE,155,1.0,9.0,88,0.00,,,0.10,Wunderground v.1.15,2013-08-12 02:15:00,
2013-08-11 21:20:00,77.6,73.8,29.99,SSE,155,0.0,9.0,88,0.00,,,0.10,Wunderground v.1.15,2013-08-12 02:20:00,
2013-08-11 21:25:00,77.5,74.0,30.00,SSE,155,0.0,9.0,89,0.00,,,0.10,Wunderground v.1.15,2013-08-12 02:25:00,
2013-08-11 21:30:00,77.4,73.9,30.00,SSE,155,0.0,9.0,89,0.00,,,0.10,Wunderground v.1.15,2013-08-12 02:30:00,
2013-08-11 21:35:00,77.3,73.8,30.00,SSE,155,1.0,9.0,89,0.00,,,0.10,Wunderground v.1.15,2013-08-12 02:35:00,
2013-08-11 21:40:00,77.1,73.6,30.00,SSE,155,1.0,1.0,89,0.00,,,0.10,Wunderground v.1.15,2013-08-12 02:40:00,
2013-08-11 21:45:00,76.9,73.4,30.00,SSE,155,0.0,9.0,89,0.00,,,0.10,Wunderground v.1.15,2013-08-12 02:45:00,
2013-08-11 21:50:00,76.8,73.6,30.00,SSE,155,0.0,9.0,90,0.00,,,0.10,Wunderground v.1.15,2013-08-12 02:50:00,
2013-08-11 21:55:00,76.6,73.4,29.99,SSE,155,0.0,9.0,90,0.00,,,0.10,Wunderground v.1.15,2013-08-12 02:55:00,
2013-08-11 22:10:00,76.3,73.5,29.98,SSE,155,0.0,9.0,91,0.00,,,0.10,Wunderground v.1.15,2013-08-12 03:10:00,
2013-08-11 22:15:00,76.2,73.4,29.98,SSE,155,0.0,9.0,91,0.00,,,0.10,Wunderground v.1.15,2013-08-12 03:15:00,
2013-08-11 22:20:00,76.1,73.3,29.98,SSE,155,0.0,9.0,91,0.00,,,0.10,Wunderground v.1.15,2013-08-12 03:20:00,
2013-08-11 22:25:00,76.1,73.3,29.98,SSE,155,0.0,9.0,91,0.00,,,0.10,Wunderground v.1.15,2013-08-12 03:25:00,
2013-08-11 22:30:00,76.1,73.3,29.98,SSE,155,0.0,9.0,91,0.00,,,0.10,Wunderground v.1.15,2013-08-12 03:30:00,
2013-08-11 22:35:00,76.0,73.5,29.98,SSE,155,0.0,9.0,92,0.00,,,0.10,Wunderground v.1.15,2013-08-12 03:35:00,
2013-08-11 22:40:00,75.9,73.4,29.98,SSE,155,0.0,9.0,92,0.00,,,0.10,Wunderground v.1.15,2013-08-12 03:40:00,
2013-08-11 22:45:00,75.9,73.4,29.98,SSE,155,0.0,9.0,92,0.00,,,0.10,Wunderground v.1.15,2013-08-12 03:45:00,
2013-08-11 22:55:00,75.9,73.4,29.98,SSE,155,0.0,9.0,92,0.00,,,0.10,Wunderground v.1.15,2013-08-12 03:55:00,
2013-08-11 23:00:00,75.8,73.3,29.98,SSE,155,0.0,9.0,92,0.00,,,0.10,Wunderground v.1.15,2013-08-12 04:00:00,
2013-08-11 23:05:00,75.9,73.7,29.98,SSE,155,0.0,9.0,93,0.00,,,0.10,Wunderground v.1.15,2013-08-12 04:05:00,
2013-08-11 23:10:00,75.9,73.7,29.98,SSE,153,1.0,1.0,93,0.00,,,0.10,Wunderground v.1.15,2013-08-12 04:10:00,
2013-08-11 23:20:00,76.0,73.8,29.98,SSE,148,1.0,9.0,93,0.00,,,0.10,Wunderground v.1.15,2013-08-12 04:20:00,
2013-08-11 23:25:00,76.1,73.9,29.98,SSE,160,1.0,9.0,93,0.00,,,0.10,Wunderground v.1.15,2013-08-12 04:25:00,
2013-08-11 23:30:00,76.1,73.9,29.98,SSE,164,1.0,9.0,93,0.00,,,0.10,Wunderground v.1.15,2013-08-12 04:30:00,
2013-08-11 23:35:00,76.0,73.8,29.98,South,183,1.0,9.0,93,0.00,,,0.10,Wunderground v.1.15,2013-08-12 04:35:00,
2013-08-11 23:40:00,76.0,73.8,29.99,South,183,1.0,1.0,93,0.00,,,0.10,Wunderground v.1.15,2013-08-12 04:40:00,
2013-08-11 23:45:00,76.0,73.8,29.99,SSE,159,0.0,2.0,93,0.00,,,0.10,Wunderground v.1.15,2013-08-12 04:45:00,
2013-08-11 23:50:00,75.9,73.7,29.99,SSE,163,1.0,1.0,93,0.00,,,0.10,Wunderground v.1.15,2013-08-12 04:50:00,
2013-08-11 23:55:00,75.8,73.6,29.98,SSE,168,1.0,9.0,93,0.00,,,0.10,Wunderground v.1.15,2013-08-12 04:55:00,